createdAt,value
2022-07-26T00:00:33.475Z,57.91
2022-07-26T00:01:43.127Z,58.05
2022-07-26T00:02:47.896Z,57.80
2022-07-26T00:03:50.596Z,57.54
2022-07-26T00:04:52.451Z,57.75
2022-07-26T00:05:53.853Z,57.42
2022-07-26T00:06:55.362Z,57.59
2022-07-26T00:08:09.930Z,57.62
2022-07-26T00:09:11.978Z,57.69
2022-07-26T00:10:14.054Z,57.59
2022-07-26T00:11:15.499Z,57.59
2022-07-26T00:12:16.928Z,57.43
2022-07-26T00:13:19.961Z,57.49
2022-07-26T00:14:21.657Z,57.49
2022-07-26T00:15:23.249Z,57.45
2022-07-26T00:16:24.937Z,57.24
2022-07-26T00:17:26.483Z,57.31
2022-07-26T00:18:28.181Z,57.30
2022-07-26T00:19:29.642Z,57.24
2022-07-26T00:20:31.552Z,57.07
2022-07-26T00:21:36.201Z,56.98
2022-07-26T00:22:39.143Z,57.24
2022-07-26T00:23:40.622Z,56.95
2022-07-26T00:24:42.099Z,57.15
2022-07-26T00:25:43.603Z,57.11
2022-07-26T00:26:44.986Z,56.93
2022-07-26T00:27:46.467Z,56.96
2022-07-26T00:28:47.882Z,56.97
2022-07-26T00:29:49.315Z,57.03
2022-07-26T00:30:51.009Z,56.96
2022-07-26T00:31:52.673Z,56.82
2022-07-26T00:32:54.351Z,56.99
2022-07-26T00:33:55.844Z,56.83
2022-07-26T00:34:57.292Z,56.45
2022-07-26T00:35:58.884Z,56.59
2022-07-26T00:37:00.545Z,57.05
2022-07-26T00:38:02.013Z,56.71
2022-07-26T00:39:03.398Z,56.92
2022-07-26T00:40:05.697Z,56.56
2022-07-26T00:41:10.561Z,56.97
2022-07-26T00:42:13.426Z,56.81
2022-07-26T00:43:14.871Z,57.01
2022-07-26T00:44:16.951Z,57.18
2022-07-26T00:45:18.429Z,56.80
2022-07-26T00:46:19.989Z,57.11
2022-07-26T00:47:21.662Z,57.09
2022-07-26T00:48:23.321Z,57.06
2022-07-26T00:49:24.844Z,56.82
2022-07-26T00:50:26.351Z,56.72
2022-07-26T00:51:28.641Z,57.20
2022-07-26T00:52:30.264Z,57.32
2022-07-26T00:53:31.759Z,57.31
2022-07-26T00:54:33.215Z,56.83
2022-07-26T00:55:34.716Z,57.10
2022-07-26T00:56:37.218Z,56.73
2022-07-26T00:57:39.123Z,57.25
2022-07-26T00:58:41.431Z,57.10
2022-07-26T00:59:45.943Z,57.26
2022-07-26T01:00:47.569Z,57.11
2022-07-26T01:01:49.466Z,57.21
2022-07-26T01:02:51.130Z,56.98
2022-07-26T01:03:53.418Z,57.45
2022-07-26T01:04:54.832Z,57.55
2022-07-26T01:05:56.303Z,57.50
2022-07-26T01:06:58.113Z,57.54
2022-07-26T01:07:59.959Z,57.64
2022-07-26T01:09:02.686Z,57.44
2022-07-26T01:10:05.359Z,57.50
2022-07-26T01:11:06.924Z,57.59
2022-07-26T01:12:08.750Z,57.69
2022-07-26T01:13:10.149Z,57.68
2022-07-26T01:14:11.723Z,57.69
2022-07-26T01:15:14.035Z,57.74
2022-07-26T01:16:16.669Z,57.78
2022-07-26T01:17:18.316Z,57.69
2022-07-26T01:18:19.866Z,57.62
2022-07-26T01:19:21.503Z,57.75
2022-07-26T01:20:22.944Z,57.76
2022-07-26T01:21:30.988Z,57.74
2022-07-26T01:22:32.614Z,57.67
2022-07-26T01:23:34.126Z,57.75
2022-07-26T01:24:35.626Z,57.90
2022-07-26T01:25:43.700Z,57.94
2022-07-26T01:26:47.515Z,58.01
2022-07-26T01:27:49.394Z,58.05
2022-07-26T01:28:51.098Z,57.74
2022-07-26T01:29:52.888Z,57.99
2022-07-26T01:32:21.864Z,57.63
2022-07-26T01:33:27.403Z,58.05
2022-07-26T01:34:29.071Z,58.04
2022-07-26T01:35:30.730Z,57.83
2022-07-26T01:36:32.305Z,58.02
2022-07-26T01:37:33.951Z,58.09
2022-07-26T01:38:35.519Z,57.99
2022-07-26T01:39:37.177Z,57.74
2022-07-26T01:40:38.747Z,58.13
2022-07-26T01:41:40.427Z,57.87
2022-07-26T01:42:42.179Z,58.20
2022-07-26T01:43:43.928Z,58.27
2022-07-26T01:44:45.489Z,58.32
2022-07-26T01:45:47.214Z,58.38
2022-07-26T01:46:48.965Z,58.29
2022-07-26T01:47:50.452Z,58.08
2022-07-26T01:48:52.173Z,58.36
2022-07-26T01:49:53.794Z,58.43
2022-07-26T01:50:55.377Z,58.45
2022-07-26T01:51:56.910Z,58.46
2022-07-26T01:52:58.542Z,58.50
2022-07-26T01:54:00.766Z,58.39
2022-07-26T01:55:02.710Z,58.47
2022-07-26T01:56:04.418Z,58.23
2022-07-26T01:57:05.949Z,58.45
2022-07-26T01:58:07.481Z,58.52
2022-07-26T01:59:09.130Z,57.56
2022-07-26T02:00:11.067Z,57.60
2022-07-26T02:01:12.802Z,57.51
2022-07-26T02:02:14.430Z,57.23
2022-07-26T02:03:16.183Z,57.42
2022-07-26T02:04:38.159Z,57.25
2022-07-26T02:05:39.690Z,57.79
2022-07-26T02:06:41.214Z,57.73
2022-07-26T02:07:44.632Z,58.24
2022-07-26T02:08:46.427Z,58.32
2022-07-26T02:09:48.314Z,57.67
2022-07-26T02:11:03.372Z,57.74
2022-07-26T02:12:05.773Z,57.66
2022-07-26T02:13:07.823Z,57.46
2022-07-26T02:14:10.902Z,57.52
2022-07-26T02:15:13.628Z,57.72
2022-07-26T02:16:15.238Z,58.00
2022-07-26T02:17:16.915Z,58.27
2022-07-26T02:18:18.547Z,58.53
2022-07-26T02:19:20.287Z,58.60
2022-07-26T02:20:22.101Z,58.73
2022-07-26T02:21:23.576Z,58.74
2022-07-26T02:22:25.163Z,58.77
2022-07-26T02:23:28.526Z,59.01
2022-07-26T02:24:30.767Z,58.96
2022-07-26T02:25:32.498Z,58.69
2022-07-26T02:26:34.047Z,58.97
2022-07-26T02:27:35.643Z,59.04
2022-07-26T02:28:54.547Z,59.24
2022-07-26T02:30:21.551Z,59.15
2022-07-26T02:31:23.271Z,59.21
2022-07-26T02:32:33.818Z,59.35
2022-07-26T02:33:35.465Z,59.28
2022-07-26T02:34:37.047Z,59.13
2022-07-26T02:35:38.771Z,59.26
2022-07-26T02:36:40.441Z,58.98
2022-07-26T02:37:43.502Z,59.19
2022-07-26T02:38:45.492Z,58.36
2022-07-26T02:39:47.048Z,59.22
2022-07-26T02:40:49.870Z,59.25
2022-07-26T02:41:51.436Z,58.59
2022-07-26T02:42:53.017Z,59.26
2022-07-26T02:43:54.642Z,59.32
2022-07-26T02:44:56.143Z,59.38
2022-07-26T02:46:01.749Z,58.65
2022-07-26T02:47:04.377Z,58.49
2022-07-26T02:48:06.461Z,58.52
2022-07-26T02:49:08.813Z,58.64
2022-07-26T02:50:10.494Z,58.58
2022-07-26T02:51:12.055Z,58.81
2022-07-26T02:52:13.707Z,58.70
2022-07-26T02:53:15.244Z,58.67
2022-07-26T02:54:16.722Z,58.20
2022-07-26T02:55:19.503Z,58.25
2022-07-26T02:56:21.043Z,58.31
2022-07-26T02:57:22.986Z,58.46
2022-07-26T02:58:26.222Z,57.95
2022-07-26T02:59:27.802Z,57.69
2022-07-26T03:00:29.818Z,57.81
2022-07-26T03:01:31.575Z,57.86
2022-07-26T03:02:33.335Z,57.95
2022-07-26T03:03:36.731Z,57.99
2022-07-26T03:04:39.801Z,58.09
2022-07-26T03:05:41.345Z,58.21
2022-07-26T03:06:42.895Z,58.32
2022-07-26T03:07:44.475Z,58.16
2022-07-26T03:08:46.857Z,57.98
2022-07-26T03:09:48.369Z,57.90
2022-07-26T03:10:49.907Z,58.19
2022-07-26T03:11:51.786Z,58.31
2022-07-26T03:12:53.450Z,58.45
2022-07-26T03:13:54.927Z,58.24
2022-07-26T03:14:56.453Z,58.24
2022-07-26T03:15:58.014Z,58.01
2022-07-26T03:16:59.728Z,57.91
2022-07-26T03:18:01.434Z,58.16
2022-07-26T03:19:02.973Z,58.26
2022-07-26T03:20:05.009Z,58.49
2022-07-26T03:21:06.674Z,58.63
2022-07-26T03:22:08.301Z,58.72
2022-07-26T03:23:09.919Z,58.89
2022-07-26T03:24:11.755Z,59.12
2022-07-26T03:25:13.662Z,59.32
2022-07-26T03:26:15.287Z,59.28
2022-07-26T03:27:16.853Z,59.19
2022-07-26T03:28:19.740Z,59.75
2022-07-26T03:29:21.420Z,60.03
2022-07-26T03:30:24.702Z,59.50
2022-07-26T03:31:28.126Z,59.20
2022-07-26T03:32:29.802Z,60.32
2022-07-26T03:33:31.547Z,60.97
2022-07-26T03:34:33.265Z,60.81
2022-07-26T03:35:36.481Z,61.03
2022-07-26T03:36:38.311Z,60.75
2022-07-26T03:37:45.963Z,60.23
2022-07-26T03:38:48.504Z,60.27
2022-07-26T03:39:50.051Z,59.73
2022-07-26T03:40:51.748Z,59.73
2022-07-26T03:41:53.266Z,59.95
2022-07-26T03:42:54.869Z,60.30
2022-07-26T03:43:56.803Z,61.07
2022-07-26T03:44:58.320Z,61.05
2022-07-26T03:45:59.852Z,60.66
2022-07-26T03:47:01.593Z,59.81
2022-07-26T03:48:03.238Z,59.46
2022-07-26T03:49:04.947Z,59.50
2022-07-26T03:50:06.988Z,60.28
2022-07-26T03:51:08.661Z,60.83
2022-07-26T03:52:10.343Z,60.82
2022-07-26T03:53:11.977Z,60.91
2022-07-26T03:54:13.615Z,62.11
2022-07-26T03:55:33.848Z,61.67
2022-07-26T03:56:35.655Z,60.47
2022-07-26T03:57:37.195Z,60.12
2022-07-26T03:58:38.820Z,60.25
2022-07-26T03:59:40.872Z,61.18
2022-07-26T04:00:42.807Z,61.84
2022-07-26T04:01:44.975Z,62.17
2022-07-26T04:02:46.601Z,61.71
2022-07-26T04:03:48.221Z,61.06
2022-07-26T04:04:49.838Z,63.22
2022-07-26T04:05:52.569Z,65.25
2022-07-26T04:06:55.949Z,66.31
2022-07-26T04:07:57.851Z,66.55
2022-07-26T04:09:00.767Z,67.64
2022-07-26T04:10:02.561Z,62.25
2022-07-26T04:11:04.286Z,62.01
2022-07-26T04:12:05.889Z,64.23
2022-07-26T04:13:07.452Z,66.59
2022-07-26T04:14:09.910Z,67.51
2022-07-26T04:15:11.903Z,68.55
2022-07-26T04:16:13.796Z,69.50
2022-07-26T04:17:15.394Z,69.70
2022-07-26T04:18:17.167Z,69.28
2022-07-26T04:19:18.760Z,70.50
2022-07-26T04:20:20.650Z,71.04
2022-07-26T04:21:23.321Z,71.66
2022-07-26T04:22:24.849Z,72.03
2022-07-26T04:23:26.446Z,71.10
2022-07-26T04:24:28.066Z,63.52
2022-07-26T04:25:40.970Z,63.43
2022-07-26T04:26:43.133Z,65.02
2022-07-26T04:27:44.846Z,65.98
2022-07-26T04:28:46.492Z,67.23
2022-07-26T04:29:48.562Z,68.77
2022-07-26T04:30:50.326Z,69.86
2022-07-26T04:31:52.000Z,69.48
2022-07-26T04:32:53.541Z,69.88
2022-07-26T04:33:55.148Z,70.81
2022-07-26T04:34:56.984Z,69.85
2022-07-26T04:35:58.842Z,69.20
2022-07-26T04:37:00.476Z,70.45
2022-07-26T04:38:03.453Z,70.65
2022-07-26T04:39:05.021Z,69.79
2022-07-26T04:40:07.654Z,70.13
2022-07-26T04:41:09.431Z,70.12
2022-07-26T04:42:11.277Z,70.05
2022-07-26T04:43:15.762Z,69.84
2022-07-26T04:44:17.678Z,67.83
2022-07-26T04:45:19.834Z,66.92
2022-07-26T04:46:21.678Z,69.14
2022-07-26T04:47:23.502Z,68.85
2022-07-26T04:48:25.260Z,68.69
2022-07-26T04:49:26.875Z,69.43
2022-07-26T04:50:28.698Z,69.91
2022-07-26T04:51:30.334Z,70.12
2022-07-26T04:52:32.746Z,70.01
2022-07-26T04:53:35.599Z,69.74
2022-07-26T04:54:37.207Z,69.66
2022-07-26T04:55:39.214Z,69.61
2022-07-26T04:56:40.932Z,66.73
2022-07-26T04:57:42.863Z,68.20
2022-07-26T04:58:44.653Z,66.99
2022-07-26T04:59:58.154Z,67.87
2022-07-26T05:01:10.702Z,67.41
2022-07-26T05:02:14.596Z,68.56
2022-07-26T05:03:16.303Z,68.82
2022-07-26T05:04:17.943Z,66.53
2022-07-26T05:05:20.100Z,68.40
2022-07-26T05:06:21.807Z,68.42
2022-07-26T05:07:24.617Z,65.82
2022-07-26T05:08:26.276Z,66.23
2022-07-26T05:09:28.623Z,65.75
2022-07-26T05:10:34.698Z,64.71
2022-07-26T05:11:36.277Z,62.69
2022-07-26T05:12:37.992Z,63.52
2022-07-26T05:13:39.628Z,62.98
2022-07-26T05:14:41.295Z,64.69
2022-07-26T05:15:43.077Z,64.10
2022-07-26T05:16:47.172Z,64.03
2022-07-26T05:17:49.120Z,64.71
2022-07-26T05:18:50.721Z,63.50
2022-07-26T05:19:54.476Z,63.31
2022-07-26T05:20:56.427Z,63.18
2022-07-26T05:21:58.179Z,65.74
2022-07-26T05:23:00.029Z,64.92
2022-07-26T05:24:01.668Z,63.05
2022-07-26T05:25:04.114Z,62.68
2022-07-26T05:26:05.641Z,62.65
2022-07-26T05:27:07.382Z,62.74
2022-07-26T05:28:09.015Z,62.79
2022-07-26T05:29:10.720Z,63.56
2022-07-26T05:30:12.551Z,64.78
2022-07-26T05:31:14.119Z,66.05
2022-07-26T05:32:16.223Z,67.86
2022-07-26T05:33:18.022Z,68.42
2022-07-26T05:34:19.698Z,67.38
2022-07-26T05:35:21.553Z,69.00
2022-07-26T05:36:23.236Z,69.78
2022-07-26T05:37:25.207Z,68.76
2022-07-26T05:38:27.092Z,70.84
2022-07-26T05:39:28.664Z,71.29
2022-07-26T05:40:30.247Z,71.32
2022-07-26T05:41:31.933Z,71.15
2022-07-26T05:42:33.624Z,71.43
2022-07-26T05:43:41.066Z,71.62
2022-07-26T05:44:43.353Z,70.93
2022-07-26T05:45:46.218Z,64.64
2022-07-26T05:46:47.832Z,63.74
2022-07-26T05:47:50.275Z,65.53
2022-07-26T05:48:52.188Z,68.43
2022-07-26T05:49:54.669Z,70.54
2022-07-26T05:50:56.352Z,70.91
2022-07-26T05:52:01.184Z,69.87
2022-07-26T05:53:03.389Z,70.09
2022-07-26T05:54:05.588Z,71.00
2022-07-26T05:55:07.670Z,71.51
2022-07-26T05:56:10.292Z,71.85
2022-07-26T05:57:11.839Z,72.35
2022-07-26T05:58:13.413Z,72.43
2022-07-26T05:59:15.212Z,71.51
2022-07-26T06:00:16.814Z,72.60
2022-07-26T06:01:18.527Z,73.01
2022-07-26T06:02:21.340Z,72.76
2022-07-26T06:03:23.043Z,70.57
2022-07-26T06:04:26.632Z,71.77
2022-07-26T06:05:28.379Z,71.55
2022-07-26T06:06:29.897Z,68.71
2022-07-26T06:07:31.561Z,68.64
2022-07-26T06:08:33.487Z,67.15
2022-07-26T06:09:35.107Z,67.97
2022-07-26T06:10:36.856Z,69.39
2022-07-26T06:11:38.412Z,70.13
2022-07-26T06:12:40.752Z,70.44
2022-07-26T06:13:42.492Z,70.29
2022-07-26T06:14:44.688Z,70.76
2022-07-26T06:15:46.280Z,71.06
2022-07-26T06:16:48.088Z,70.31
2022-07-26T06:17:49.649Z,69.14
2022-07-26T06:18:51.224Z,71.09
2022-07-26T06:19:52.926Z,72.21
2022-07-26T06:20:55.219Z,71.95
2022-07-26T06:21:56.867Z,69.54
2022-07-26T06:22:58.902Z,70.52
2022-07-26T06:24:00.771Z,70.10
2022-07-26T06:25:02.745Z,69.33
2022-07-26T06:26:05.197Z,70.58
2022-07-26T06:27:07.587Z,67.50
2022-07-26T06:28:10.221Z,66.50
2022-07-26T06:29:12.204Z,69.68
2022-07-26T06:30:13.967Z,71.80
2022-07-26T06:31:16.861Z,70.63
2022-07-26T06:32:18.407Z,70.62
2022-07-26T06:33:19.971Z,69.45
2022-07-26T06:34:21.501Z,70.04
2022-07-26T06:35:23.751Z,67.28
2022-07-26T06:36:30.334Z,67.05
2022-07-26T06:37:35.008Z,68.99
2022-07-26T06:38:39.053Z,67.89
2022-07-26T06:39:40.631Z,66.90
2022-07-26T06:40:42.398Z,67.90
2022-07-26T06:41:44.026Z,68.77
2022-07-26T06:42:45.538Z,68.10
2022-07-26T06:43:47.074Z,69.15
2022-07-26T06:44:48.803Z,67.65
2022-07-26T06:45:50.679Z,67.07
2022-07-26T06:46:52.360Z,68.26
2022-07-26T06:47:54.355Z,70.02
2022-07-26T06:48:57.081Z,69.62
2022-07-26T06:49:58.849Z,67.67
2022-07-26T06:51:00.592Z,66.79
2022-07-26T06:52:02.165Z,67.13
2022-07-26T06:53:03.737Z,68.02
2022-07-26T06:54:06.080Z,68.65
2022-07-26T06:55:12.569Z,67.69
2022-07-26T06:56:16.483Z,67.39
2022-07-26T06:57:18.110Z,69.55
2022-07-26T06:58:19.682Z,70.09
2022-07-26T06:59:21.295Z,69.80
2022-07-26T07:00:22.968Z,70.48
2022-07-26T07:01:55.671Z,70.68
2022-07-26T07:02:46.674Z,71.26
2022-07-26T07:03:48.325Z,71.79
2022-07-26T07:04:50.104Z,70.88
2022-07-26T07:05:51.773Z,70.40
2022-07-26T07:06:53.541Z,69.18
2022-07-26T07:07:56.872Z,69.76
2022-07-26T07:08:58.981Z,68.52
2022-07-26T07:10:00.916Z,66.99
2022-07-26T07:11:02.516Z,68.18
2022-07-26T07:12:09.813Z,68.96
2022-07-26T07:13:12.393Z,68.49
2022-07-26T07:14:14.036Z,69.04
2022-07-26T07:15:15.548Z,70.30
2022-07-26T07:16:17.407Z,70.13
2022-07-26T07:17:20.460Z,70.56
2022-07-26T07:18:22.273Z,71.43
2022-07-26T07:19:24.565Z,71.23
2022-07-26T07:20:27.690Z,71.21
2022-07-26T07:21:29.320Z,68.58
2022-07-26T07:22:31.785Z,70.40
2022-07-26T07:23:33.428Z,71.05
2022-07-26T07:24:34.974Z,71.13
2022-07-26T07:25:36.510Z,71.26
2022-07-26T07:26:38.979Z,71.37
2022-07-26T07:27:40.823Z,71.53
2022-07-26T07:28:42.702Z,71.44
2022-07-26T07:29:44.766Z,71.04
2022-07-26T07:30:46.992Z,71.57
2022-07-26T07:31:49.950Z,70.89
2022-07-26T07:32:52.077Z,70.44
2022-07-26T07:33:54.066Z,71.45
2022-07-26T07:34:55.646Z,71.83
2022-07-26T07:35:57.355Z,71.96
2022-07-26T07:37:00.102Z,71.86
2022-07-26T07:38:02.682Z,71.91
2022-07-26T07:39:06.616Z,71.73
2022-07-26T07:40:09.995Z,71.89
2022-07-26T07:41:11.620Z,72.38
2022-07-26T07:42:13.299Z,72.18
2022-07-26T07:43:14.979Z,71.91
2022-07-26T07:44:16.713Z,72.36
2022-07-26T07:45:18.559Z,72.43
2022-07-26T07:46:20.219Z,72.44
2022-07-26T07:47:21.907Z,72.62
2022-07-26T07:48:23.572Z,72.47
2022-07-26T07:49:25.362Z,72.08
2022-07-26T07:50:28.428Z,71.25
2022-07-26T07:51:30.255Z,71.38
2022-07-26T07:52:32.016Z,70.89
2022-07-26T07:53:33.799Z,70.57
2022-07-26T07:54:35.480Z,70.44
2022-07-26T07:55:41.366Z,69.32
2022-07-26T07:56:45.760Z,69.19
2022-07-26T07:57:47.465Z,69.36
2022-07-26T07:58:49.191Z,67.81
2022-07-26T07:59:54.152Z,68.50
2022-07-26T08:00:55.838Z,67.94
2022-07-26T08:01:58.351Z,68.48
2022-07-26T08:03:00.016Z,68.67
2022-07-26T08:04:01.835Z,68.75
2022-07-26T08:05:11.450Z,68.49
2022-07-26T08:06:16.221Z,68.81
2022-07-26T08:07:17.815Z,68.89
2022-07-26T08:08:22.028Z,68.14
2022-07-26T08:09:24.958Z,68.01
2022-07-26T08:10:30.486Z,68.18
2022-07-26T08:11:32.267Z,68.16
2022-07-26T08:12:35.919Z,68.43
2022-07-26T08:13:37.630Z,68.47
2022-07-26T08:14:39.398Z,68.44
2022-07-26T08:15:43.122Z,67.83
2022-07-26T08:16:44.946Z,68.19
2022-07-26T08:17:51.061Z,67.76
2022-07-26T08:18:57.630Z,67.94
2022-07-26T08:20:00.639Z,67.95
2022-07-26T08:21:03.238Z,67.82
2022-07-26T08:22:07.679Z,67.30
2022-07-26T08:23:09.878Z,67.21
2022-07-26T08:24:11.784Z,67.57
2022-07-26T08:25:13.591Z,67.19
2022-07-26T08:26:15.387Z,67.38
2022-07-26T08:27:17.301Z,67.56
2022-07-26T08:28:38.057Z,67.15
2022-07-26T08:29:40.636Z,66.99
2022-07-26T08:30:42.513Z,66.84
2022-07-26T08:31:44.513Z,66.94
2022-07-26T08:32:46.377Z,66.73
2022-07-26T08:33:48.132Z,66.75
2022-07-26T08:34:49.874Z,66.74
2022-07-26T08:35:53.214Z,66.54
2022-07-26T08:37:15.928Z,66.42
2022-07-26T08:38:18.588Z,66.22
2022-07-26T08:39:20.163Z,66.25
2022-07-26T08:40:21.873Z,66.28
2022-07-26T08:41:23.640Z,66.28
2022-07-26T08:42:25.457Z,66.36
2022-07-26T08:43:27.948Z,66.08
2022-07-26T08:44:29.991Z,66.26
2022-07-26T08:45:31.833Z,66.49
2022-07-26T08:46:34.740Z,66.18
2022-07-26T08:47:50.268Z,65.87
2022-07-26T08:48:58.143Z,65.93
2022-07-26T08:49:59.861Z,65.06
2022-07-26T08:51:06.002Z,64.34
2022-07-26T08:52:14.260Z,65.65
2022-07-26T08:53:16.219Z,65.77
2022-07-26T08:54:17.878Z,65.15
2022-07-26T08:55:20.096Z,65.64
2022-07-26T15:07:14.819Z,38.00
2022-07-26T15:08:16.517Z,38.24
2022-07-26T15:09:18.068Z,37.85
2022-07-26T15:10:28.543Z,37.08
2022-07-26T15:11:30.289Z,37.61
2022-07-26T15:12:32.000Z,37.73
2022-07-26T15:13:33.916Z,37.94
2022-07-26T15:14:36.526Z,37.53
2022-07-26T15:15:38.103Z,36.94
2022-07-26T15:16:39.738Z,36.94
2022-07-26T15:17:41.492Z,36.50
2022-07-26T15:18:43.325Z,36.71
2022-07-26T15:19:44.817Z,36.89
2022-07-26T15:20:46.307Z,36.82
2022-07-26T15:21:50.316Z,36.76
2022-07-26T15:22:54.915Z,36.53
2022-07-26T15:23:56.623Z,36.45
2022-07-26T15:24:58.360Z,36.30
2022-07-26T15:25:59.830Z,35.55
2022-07-26T15:27:01.486Z,35.81
2022-07-26T15:28:03.520Z,36.29
2022-07-26T15:29:05.226Z,36.52
2022-07-26T15:30:11.627Z,36.20
2022-07-26T15:31:15.252Z,36.01
2022-07-26T15:32:16.904Z,36.28
2022-07-26T15:33:20.076Z,36.50
2022-07-26T15:34:21.865Z,36.45
2022-07-26T15:35:23.411Z,36.40
2022-07-26T15:36:25.056Z,36.35
2022-07-26T15:37:28.235Z,36.72
2022-07-26T15:38:29.966Z,36.95
2022-07-26T15:39:31.687Z,37.24
2022-07-26T15:40:33.434Z,37.52
2022-07-26T15:41:34.972Z,37.75
2022-07-26T15:42:41.520Z,38.05
2022-07-26T15:43:48.937Z,38.22
2022-07-26T15:44:51.050Z,38.36
2022-07-26T15:45:54.751Z,38.67
2022-07-26T15:46:56.336Z,38.91
2022-07-26T15:48:09.414Z,39.40
2022-07-26T15:49:16.377Z,39.75
2022-07-26T15:50:18.250Z,40.05
2022-07-26T15:51:23.989Z,39.92
2022-07-26T15:52:25.539Z,39.90
2022-07-26T15:53:28.888Z,39.98
2022-07-26T15:54:30.972Z,40.08
2022-07-26T15:55:32.978Z,40.51
2022-07-26T15:56:34.843Z,40.71
2022-07-26T15:57:36.875Z,40.91
2022-07-26T15:58:38.497Z,41.47
2022-07-26T15:59:40.699Z,41.64
2022-07-26T16:00:42.412Z,41.30
2022-07-26T16:01:43.948Z,41.54
2022-07-26T16:02:45.561Z,41.63
2022-07-26T16:03:47.290Z,41.73
2022-07-26T16:04:48.972Z,41.49
2022-07-26T16:05:50.655Z,41.65
2022-07-26T16:06:52.194Z,41.52
2022-07-26T16:07:53.761Z,41.53
2022-07-26T16:09:15.109Z,41.47
2022-07-26T16:10:17.103Z,41.77
2022-07-26T16:11:18.829Z,42.48
2022-07-26T16:12:20.546Z,42.20
2022-07-26T16:13:22.104Z,42.15
2022-07-26T16:14:23.618Z,42.46
2022-07-26T16:15:25.401Z,42.54
2022-07-26T16:16:27.072Z,42.20
2022-07-26T16:17:28.616Z,42.29
2022-07-26T16:18:30.075Z,42.30
2022-07-26T16:19:31.641Z,42.68
2022-07-26T16:20:33.785Z,42.78
2022-07-26T16:21:36.452Z,42.53
2022-07-26T16:22:41.271Z,42.42
2022-07-26T16:23:42.939Z,42.67
2022-07-26T16:24:44.510Z,43.07
2022-07-26T16:25:46.143Z,43.52
2022-07-26T16:26:47.915Z,43.80
2022-07-26T16:27:50.020Z,44.81
2022-07-26T16:28:52.513Z,44.91
2022-07-26T16:29:54.280Z,44.70
2022-07-26T16:30:56.012Z,45.28
2022-07-26T16:31:57.904Z,45.05
2022-07-26T16:32:59.454Z,45.04
2022-07-26T16:34:01.053Z,45.33
2022-07-26T16:35:03.310Z,46.27
2022-07-26T16:36:06.462Z,46.30
2022-07-26T16:37:08.520Z,45.77
2022-07-26T16:38:10.114Z,46.24
2022-07-26T16:39:12.496Z,45.99
2022-07-26T16:40:14.471Z,45.89
2022-07-26T16:41:16.786Z,45.60
2022-07-26T16:42:18.428Z,45.82
2022-07-26T16:43:19.970Z,45.75
2022-07-26T16:44:23.388Z,45.75
2022-07-26T16:45:25.029Z,45.72
2022-07-26T16:46:26.887Z,45.83
2022-07-26T16:47:28.718Z,46.20
2022-07-26T16:48:30.319Z,46.28
2022-07-26T16:49:32.037Z,46.24
2022-07-26T16:50:33.787Z,46.62
2022-07-26T16:51:35.811Z,47.22
2022-07-26T16:52:37.507Z,48.16
2022-07-26T16:53:39.903Z,47.78
2022-07-26T16:54:41.557Z,48.37
2022-07-26T16:55:44.649Z,48.15
2022-07-26T16:56:46.383Z,48.96
2022-07-26T16:57:48.176Z,48.51
2022-07-26T16:58:49.721Z,49.17
2022-07-26T16:59:51.355Z,50.11
2022-07-26T17:00:53.045Z,50.93
2022-07-26T17:01:54.918Z,50.13
2022-07-26T17:02:56.785Z,50.56
2022-07-26T17:03:58.597Z,51.26
2022-07-26T17:05:00.690Z,51.27
2022-07-26T17:06:06.785Z,52.26
2022-07-26T17:07:24.427Z,53.53
2022-07-26T17:08:27.500Z,52.22
2022-07-26T17:09:29.104Z,52.82
2022-07-26T17:10:30.667Z,52.57
2022-07-26T17:11:32.355Z,53.28
2022-07-26T17:12:35.009Z,53.23
2022-07-26T17:13:36.748Z,52.82
2022-07-26T17:14:38.343Z,52.78
2022-07-26T17:15:39.928Z,52.36
2022-07-26T17:16:41.509Z,52.90
2022-07-26T17:17:48.390Z,52.73
2022-07-26T17:18:50.533Z,53.44
2022-07-26T17:19:52.278Z,53.07
2022-07-26T17:20:53.966Z,53.53
2022-07-26T17:21:55.631Z,53.15
2022-07-26T17:22:57.466Z,52.91
2022-07-26T17:24:03.854Z,53.05
2022-07-26T17:25:07.338Z,52.88
2022-07-26T17:26:09.024Z,52.92
2022-07-26T17:27:10.592Z,52.98
2022-07-26T17:28:12.588Z,52.84
2022-07-26T17:29:14.653Z,52.52
2022-07-26T17:30:16.426Z,52.48
2022-07-26T17:31:18.089Z,52.48
2022-07-26T17:32:19.727Z,52.71
2022-07-26T17:33:21.573Z,53.03
2022-07-26T17:34:23.393Z,53.14
2022-07-26T17:35:25.028Z,53.00
2022-07-26T17:36:27.581Z,52.82
2022-07-26T17:37:29.237Z,53.05
2022-07-26T17:38:31.040Z,53.17
2022-07-26T17:39:52.353Z,53.15
2022-07-26T17:40:54.587Z,54.24
2022-07-26T17:41:56.407Z,53.40
2022-07-26T17:42:57.960Z,53.21
2022-07-26T17:44:01.983Z,53.60
2022-07-26T17:45:05.029Z,53.89
2022-07-26T17:46:06.737Z,53.73
2022-07-26T17:47:27.704Z,53.75
2022-07-26T17:48:30.006Z,54.36
2022-07-26T17:49:31.950Z,54.02
2022-07-26T17:50:36.889Z,54.11
2022-07-26T17:51:39.702Z,54.01
2022-07-26T17:52:41.425Z,55.09
2022-07-26T17:53:43.723Z,54.21
2022-07-26T17:54:45.305Z,53.74
2022-07-26T17:55:46.999Z,53.63
2022-07-26T17:56:48.551Z,54.21
2022-07-26T17:57:50.468Z,54.30
2022-07-26T17:58:52.056Z,55.30
2022-07-26T17:59:53.846Z,55.24
2022-07-26T18:00:55.481Z,54.82
2022-07-26T18:01:57.157Z,54.56
2022-07-26T18:02:58.742Z,55.08
2022-07-26T18:04:00.382Z,54.43
2022-07-26T18:05:02.822Z,54.70
2022-07-26T18:06:05.882Z,55.61
2022-07-26T18:07:07.862Z,55.03
2022-07-26T18:08:09.651Z,54.81
2022-07-26T18:09:12.895Z,55.18
2022-07-26T18:10:14.970Z,55.41
2022-07-26T18:11:16.693Z,55.32
2022-07-26T18:12:18.341Z,56.03
2022-07-26T18:13:19.935Z,55.92
2022-07-26T18:14:22.058Z,54.77
2022-07-26T18:15:23.750Z,54.75
2022-07-26T18:16:26.733Z,54.71
2022-07-26T18:17:28.378Z,54.58
2022-07-26T18:18:29.887Z,54.90
2022-07-26T18:19:32.534Z,55.05
2022-07-26T18:20:34.211Z,54.97
2022-07-26T18:21:35.987Z,55.22
2022-07-26T18:22:37.780Z,55.05
2022-07-26T18:23:54.580Z,55.11
2022-07-26T18:25:01.268Z,55.82
2022-07-26T18:26:02.991Z,56.25
2022-07-26T18:27:04.776Z,55.91
2022-07-26T18:28:07.517Z,55.72
2022-07-26T18:29:09.401Z,55.74
2022-07-26T18:30:11.325Z,55.93
2022-07-26T18:31:13.193Z,55.78
2022-07-26T18:32:14.949Z,56.20
2022-07-26T18:33:16.565Z,56.13
2022-07-26T18:34:18.207Z,56.20
2022-07-26T18:35:19.947Z,56.25
2022-07-26T18:36:21.719Z,56.40
2022-07-26T18:37:23.385Z,56.37
2022-07-26T18:38:24.905Z,56.33
2022-07-26T18:39:32.806Z,56.30
2022-07-26T18:40:34.955Z,56.73
2022-07-26T18:41:36.651Z,57.19
2022-07-26T18:42:38.472Z,56.92
2022-07-26T18:43:40.141Z,56.19
2022-07-26T18:44:41.619Z,56.39
2022-07-26T18:45:43.286Z,56.29
2022-07-26T18:46:45.215Z,56.06
2022-07-26T18:47:46.914Z,55.94
2022-07-26T18:48:48.458Z,55.80
2022-07-26T18:49:50.312Z,55.75
2022-07-26T18:50:53.161Z,56.22
2022-07-26T18:51:54.879Z,56.52
2022-07-26T18:52:56.605Z,56.60
2022-07-26T18:53:58.185Z,56.19
2022-07-26T18:55:06.226Z,56.01
2022-07-26T18:56:07.787Z,56.31
2022-07-26T18:57:09.713Z,56.72
2022-07-26T18:58:11.385Z,56.70
2022-07-26T18:59:13.179Z,56.52
2022-07-26T19:00:16.826Z,57.21
2022-07-26T19:01:18.533Z,56.71
2022-07-26T19:02:20.199Z,57.04
2022-07-26T19:03:21.806Z,57.00
2022-07-26T19:04:23.426Z,57.08
2022-07-26T19:05:25.120Z,56.80
2022-07-26T19:06:27.338Z,56.50
2022-07-26T19:07:29.217Z,56.54
2022-07-26T19:08:30.930Z,56.51
2022-07-26T19:09:32.583Z,57.17
2022-07-26T19:10:34.228Z,57.88
2022-07-26T19:11:37.642Z,58.07
2022-07-26T19:12:39.844Z,57.38
2022-07-26T19:13:41.505Z,57.68
2022-07-26T19:14:43.041Z,58.30
2022-07-26T19:15:44.600Z,58.17
2022-07-26T19:16:46.223Z,57.33
2022-07-26T19:17:47.851Z,57.52
2022-07-26T19:18:52.745Z,57.23
2022-07-26T19:19:57.091Z,57.04
2022-07-26T19:20:59.399Z,57.17
2022-07-26T19:22:01.167Z,57.45
2022-07-26T19:23:16.037Z,57.39
2022-07-26T19:24:17.775Z,57.18
2022-07-26T19:25:19.279Z,57.20
2022-07-26T19:26:23.091Z,57.19
2022-07-26T19:27:24.670Z,57.09
2022-07-26T19:28:26.471Z,57.63
2022-07-26T19:29:28.153Z,57.47
2022-07-26T19:30:29.743Z,57.27
2022-07-26T19:31:31.442Z,57.22
2022-07-26T19:32:33.752Z,57.83
2022-07-26T19:33:35.854Z,57.48
2022-07-26T19:34:37.675Z,57.48
2022-07-26T19:35:39.208Z,57.91
2022-07-26T19:36:40.854Z,57.84
2022-07-26T19:37:43.678Z,57.99
2022-07-26T19:38:45.540Z,57.53